sensor_id;sensor_type;location;lat;lon;timestamp;temperature;humidity
4584;DHT22;2304;47.606;12.186;2023-07-31T00:02:06;19.10;70.70
4584;DHT22;2304;47.606;12.186;2023-07-31T00:07:09;19.00;71.20
4584;DHT22;2304;47.606;12.186;2023-07-31T00:12:11;19.00;71.20
4584;DHT22;2304;47.606;12.186;2023-07-31T00:17:13;19.10;70.80
4584;DHT22;2304;47.606;12.186;2023-07-31T00:22:16;19.00;70.10
4584;DHT22;2304;47.606;12.186;2023-07-31T00:27:18;18.90;69.70
4584;DHT22;2304;47.606;12.186;2023-07-31T00:32:20;18.90;70.40
4584;DHT22;2304;47.606;12.186;2023-07-31T00:37:23;18.80;70.60
4584;DHT22;2304;47.606;12.186;2023-07-31T00:42:25;18.80;70.90
4584;DHT22;2304;47.606;12.186;2023-07-31T00:47:27;18.70;71.20
4584;DHT22;2304;47.606;12.186;2023-07-31T00:52:30;18.70;71.20
4584;DHT22;2304;47.606;12.186;2023-07-31T00:57:32;18.70;71.80
4584;DHT22;2304;47.606;12.186;2023-07-31T01:02:35;18.60;72.20
4584;DHT22;2304;47.606;12.186;2023-07-31T01:07:42;18.60;72.50
4584;DHT22;2304;47.606;12.186;2023-07-31T01:12:47;18.60;72.90
4584;DHT22;2304;47.606;12.186;2023-07-31T01:17:49;18.60;73.20
4584;DHT22;2304;47.606;12.186;2023-07-31T01:28:56;18.50;73.70
4584;DHT22;2304;47.606;12.186;2023-07-31T01:34:02;18.10;73.90
4584;DHT22;2304;47.606;12.186;2023-07-31T01:39:04;18.40;73.80
4584;DHT22;2304;47.606;12.186;2023-07-31T01:44:08;18.30;74.20
4584;DHT22;2304;47.606;12.186;2023-07-31T01:49:10;18.30;74.20
4584;DHT22;2304;47.606;12.186;2023-07-31T01:54:11;18.20;74.30
4584;DHT22;2304;47.606;12.186;2023-07-31T01:59:15;18.10;75.30
4584;DHT22;2304;47.606;12.186;2023-07-31T02:04:17;18.10;74.90
4584;DHT22;2304;47.606;12.186;2023-07-31T02:09:18;18.10;75.30
4584;DHT22;2304;47.606;12.186;2023-07-31T02:14:22;18.10;75.70
4584;DHT22;2304;47.606;12.186;2023-07-31T02:19:23;18.10;74.80
4584;DHT22;2304;47.606;12.186;2023-07-31T02:24:25;18.00;74.80
4584;DHT22;2304;47.606;12.186;2023-07-31T02:29:28;18.00;75.20
4584;DHT22;2304;47.606;12.186;2023-07-31T02:34:30;17.90;75.70
4584;DHT22;2304;47.606;12.186;2023-07-31T02:39:32;17.80;75.70
4584;DHT22;2304;47.606;12.186;2023-07-31T02:44:35;17.80;75.50
4584;DHT22;2304;47.606;12.186;2023-07-31T02:49:37;17.80;75.10
4584;DHT22;2304;47.606;12.186;2023-07-31T02:54:39;17.80;75.70
4584;DHT22;2304;47.606;12.186;2023-07-31T02:59:42;17.80;76.00
4584;DHT22;2304;47.606;12.186;2023-07-31T03:04:44;17.80;76.00
4584;DHT22;2304;47.606;12.186;2023-07-31T03:09:46;17.80;76.30
4584;DHT22;2304;47.606;12.186;2023-07-31T03:14:49;17.70;76.70
4584;DHT22;2304;47.606;12.186;2023-07-31T03:19:51;17.70;76.70
4584;DHT22;2304;47.606;12.186;2023-07-31T03:24:53;17.70;76.60
4584;DHT22;2304;47.606;12.186;2023-07-31T03:29:57;17.80;76.80
4584;DHT22;2304;47.606;12.186;2023-07-31T03:34:59;17.70;76.80
4584;DHT22;2304;47.606;12.186;2023-07-31T03:40:01;17.70;76.60
4584;DHT22;2304;47.606;12.186;2023-07-31T03:45:08;17.80;76.50
4584;DHT22;2304;47.606;12.186;2023-07-31T03:50:10;17.70;76.20
4584;DHT22;2304;47.606;12.186;2023-07-31T03:55:12;17.70;76.20
4584;DHT22;2304;47.606;12.186;2023-07-31T04:00:15;17.70;77.60
4584;DHT22;2304;47.606;12.186;2023-07-31T04:05:17;17.70;77.70
4584;DHT22;2304;47.606;12.186;2023-07-31T04:10:19;17.70;78.30
4584;DHT22;2304;47.606;12.186;2023-07-31T04:15:22;17.60;78.50
4584;DHT22;2304;47.606;12.186;2023-07-31T04:20:24;17.60;78.70
4584;DHT22;2304;47.606;12.186;2023-07-31T04:25:25;17.60;78.80
4584;DHT22;2304;47.606;12.186;2023-07-31T04:30:29;17.60;79.10
4584;DHT22;2304;47.606;12.186;2023-07-31T04:35:30;17.60;79.70
4584;DHT22;2304;47.606;12.186;2023-07-31T04:40:32;17.60;80.20
4584;DHT22;2304;47.606;12.186;2023-07-31T04:45:35;17.40;81.00
4584;DHT22;2304;47.606;12.186;2023-07-31T04:50:37;17.50;81.60
4584;DHT22;2304;47.606;12.186;2023-07-31T04:55:39;17.30;81.80
4584;DHT22;2304;47.606;12.186;2023-07-31T05:00:42;17.40;81.20
4584;DHT22;2304;47.606;12.186;2023-07-31T05:05:44;17.40;81.10
4584;DHT22;2304;47.606;12.186;2023-07-31T05:10:46;17.40;81.40
4584;DHT22;2304;47.606;12.186;2023-07-31T05:15:49;17.40;80.70
4584;DHT22;2304;47.606;12.186;2023-07-31T05:20:51;17.50;80.10
4584;DHT22;2304;47.606;12.186;2023-07-31T05:25:53;17.70;80.00
4584;DHT22;2304;47.606;12.186;2023-07-31T05:31:00;17.80;80.10
4584;DHT22;2304;47.606;12.186;2023-07-31T05:36:02;17.90;79.00
4584;DHT22;2304;47.606;12.186;2023-07-31T05:41:04;18.00;78.70
4584;DHT22;2304;47.606;12.186;2023-07-31T05:46:07;18.10;79.40
4584;DHT22;2304;47.606;12.186;2023-07-31T05:51:09;18.00;77.50
4584;DHT22;2304;47.606;12.186;2023-07-31T05:56:11;18.10;77.20
4584;DHT22;2304;47.606;12.186;2023-07-31T06:01:15;18.10;76.80
4584;DHT22;2304;47.606;12.186;2023-07-31T06:06:17;18.20;76.80
4584;DHT22;2304;47.606;12.186;2023-07-31T06:11:20;18.40;77.40
4584;DHT22;2304;47.606;12.186;2023-07-31T06:16:23;18.60;76.00
4584;DHT22;2304;47.606;12.186;2023-07-31T06:21:25;18.70;74.20
4584;DHT22;2304;47.606;12.186;2023-07-31T06:26:27;18.80;73.60
4584;DHT22;2304;47.606;12.186;2023-07-31T06:31:30;18.90;72.50
4584;DHT22;2304;47.606;12.186;2023-07-31T06:36:32;19.00;72.50
4584;DHT22;2304;47.606;12.186;2023-07-31T06:41:34;19.10;72.90
4584;DHT22;2304;47.606;12.186;2023-07-31T06:46:37;19.20;72.40
4584;DHT22;2304;47.606;12.186;2023-07-31T06:51:39;19.40;74.00
4584;DHT22;2304;47.606;12.186;2023-07-31T06:56:41;19.50;73.40
4584;DHT22;2304;47.606;12.186;2023-07-31T07:01:44;19.60;71.80
4584;DHT22;2304;47.606;12.186;2023-07-31T07:06:46;19.70;71.50
4584;DHT22;2304;47.606;12.186;2023-07-31T07:11:47;19.90;70.90
4584;DHT22;2304;47.606;12.186;2023-07-31T07:16:52;20.10;71.00
4584;DHT22;2304;47.606;12.186;2023-07-31T07:21:54;20.30;70.50
4584;DHT22;2304;47.606;12.186;2023-07-31T07:26:56;20.40;69.50
4584;DHT22;2304;47.606;12.186;2023-07-31T07:32:00;20.60;69.10
4584;DHT22;2304;47.606;12.186;2023-07-31T07:37:01;20.70;67.20
4584;DHT22;2304;47.606;12.186;2023-07-31T07:42:04;20.90;66.90
4584;DHT22;2304;47.606;12.186;2023-07-31T07:47:07;21.30;66.10
4584;DHT22;2304;47.606;12.186;2023-07-31T07:52:09;21.60;65.60
4584;DHT22;2304;47.606;12.186;2023-07-31T07:57:11;21.80;65.60
4584;DHT22;2304;47.606;12.186;2023-07-31T08:02:14;22.10;64.00
4584;DHT22;2304;47.606;12.186;2023-07-31T08:07:16;22.50;64.70
4584;DHT22;2304;47.606;12.186;2023-07-31T08:12:18;22.90;63.40
4584;DHT22;2304;47.606;12.186;2023-07-31T08:17:21;23.20;61.30
4584;DHT22;2304;47.606;12.186;2023-07-31T08:22:23;23.30;60.90
4584;DHT22;2304;47.606;12.186;2023-07-31T08:27:24;23.60;61.50
4584;DHT22;2304;47.606;12.186;2023-07-31T08:32:28;24.00;61.10
4584;DHT22;2304;47.606;12.186;2023-07-31T08:37:30;24.20;60.40
4584;DHT22;2304;47.606;12.186;2023-07-31T08:42:31;24.30;60.10
4584;DHT22;2304;47.606;12.186;2023-07-31T08:47:35;24.50;59.80
4584;DHT22;2304;47.606;12.186;2023-07-31T08:52:37;24.80;59.20
4584;DHT22;2304;47.606;12.186;2023-07-31T08:57:40;24.70;57.70
4584;DHT22;2304;47.606;12.186;2023-07-31T09:02:46;24.90;55.70
4584;DHT22;2304;47.606;12.186;2023-07-31T09:07:50;25.20;56.80
4584;DHT22;2304;47.606;12.186;2023-07-31T09:12:53;25.20;55.10
4584;DHT22;2304;47.606;12.186;2023-07-31T09:18:00;25.10;53.50
4584;DHT22;2304;47.606;12.186;2023-07-31T09:23:06;25.30;52.50
4584;DHT22;2304;47.606;12.186;2023-07-31T09:28:10;25.50;53.00
4584;DHT22;2304;47.606;12.186;2023-07-31T09:33:13;25.80;52.40
4584;DHT22;2304;47.606;12.186;2023-07-31T09:38:16;26.00;51.70
4584;DHT22;2304;47.606;12.186;2023-07-31T09:43:19;26.00;48.80
4584;DHT22;2304;47.606;12.186;2023-07-31T09:48:24;25.60;49.50
4584;DHT22;2304;47.606;12.186;2023-07-31T09:53:28;25.50;52.50
4584;DHT22;2304;47.606;12.186;2023-07-31T09:58:34;25.90;50.50
4584;DHT22;2304;47.606;12.186;2023-07-31T10:03:38;25.60;48.80
4584;DHT22;2304;47.606;12.186;2023-07-31T10:08:41;25.40;50.10
4584;DHT22;2304;47.606;12.186;2023-07-31T10:13:44;25.30;52.40
4584;DHT22;2304;47.606;12.186;2023-07-31T10:18:48;25.20;50.20
4584;DHT22;2304;47.606;12.186;2023-07-31T10:23:51;25.20;50.00
4584;DHT22;2304;47.606;12.186;2023-07-31T10:28:53;25.30;52.00
4584;DHT22;2304;47.606;12.186;2023-07-31T10:33:58;25.60;54.60
4584;DHT22;2304;47.606;12.186;2023-07-31T10:39:03;26.30;55.50
4584;DHT22;2304;47.606;12.186;2023-07-31T10:44:07;26.80;52.90
4584;DHT22;2304;47.606;12.186;2023-07-31T10:49:20;27.00;51.80
4584;DHT22;2304;47.606;12.186;2023-07-31T10:54:22;27.10;52.90
4584;DHT22;2304;47.606;12.186;2023-07-31T10:59:26;27.30;51.70
4584;DHT22;2304;47.606;12.186;2023-07-31T11:04:30;27.60;51.80
4584;DHT22;2304;47.606;12.186;2023-07-31T11:09:33;27.70;50.70
4584;DHT22;2304;47.606;12.186;2023-07-31T11:14:35;27.90;49.50
4584;DHT22;2304;47.606;12.186;2023-07-31T11:19:38;27.70;50.50
4584;DHT22;2304;47.606;12.186;2023-07-31T11:24:40;27.60;49.80
4584;DHT22;2304;47.606;12.186;2023-07-31T11:29:43;27.50;50.40
4584;DHT22;2304;47.606;12.186;2023-07-31T11:34:53;27.60;49.20
4584;DHT22;2304;47.606;12.186;2023-07-31T11:40:00;27.40;48.60
4584;DHT22;2304;47.606;12.186;2023-07-31T11:45:03;27.70;48.20
4584;DHT22;2304;47.606;12.186;2023-07-31T11:50:11;27.70;48.80
4584;DHT22;2304;47.606;12.186;2023-07-31T11:55:14;27.90;49.00
4584;DHT22;2304;47.606;12.186;2023-07-31T12:00:17;28.10;48.50
4584;DHT22;2304;47.606;12.186;2023-07-31T12:05:22;28.20;47.40
4584;DHT22;2304;47.606;12.186;2023-07-31T12:10:25;28.30;47.40
4584;DHT22;2304;47.606;12.186;2023-07-31T12:15:45;28.40;46.00
4584;DHT22;2304;47.606;12.186;2023-07-31T12:20:54;28.60;46.70
4584;DHT22;2304;47.606;12.186;2023-07-31T12:26:02;28.70;48.20
4584;DHT22;2304;47.606;12.186;2023-07-31T12:31:05;28.70;47.40
4584;DHT22;2304;47.606;12.186;2023-07-31T12:36:10;28.70;45.70
4584;DHT22;2304;47.606;12.186;2023-07-31T12:41:12;28.70;45.20
4584;DHT22;2304;47.606;12.186;2023-07-31T12:46:37;28.80;46.10
4584;DHT22;2304;47.606;12.186;2023-07-31T12:51:39;28.90;45.10
4584;DHT22;2304;47.606;12.186;2023-07-31T12:56:41;29.20;46.60
4584;DHT22;2304;47.606;12.186;2023-07-31T13:01:44;29.30;44.80
4584;DHT22;2304;47.606;12.186;2023-07-31T13:06:46;29.30;45.50
4584;DHT22;2304;47.606;12.186;2023-07-31T13:11:48;29.30;43.90
4584;DHT22;2304;47.606;12.186;2023-07-31T13:16:51;29.30;44.80
4584;DHT22;2304;47.606;12.186;2023-07-31T13:21:53;29.20;45.00
4584;DHT22;2304;47.606;12.186;2023-07-31T13:26:55;29.20;46.50
4584;DHT22;2304;47.606;12.186;2023-07-31T13:31:59;29.30;46.00
4584;DHT22;2304;47.606;12.186;2023-07-31T13:37:00;29.30;45.30
4584;DHT22;2304;47.606;12.186;2023-07-31T13:42:03;29.40;44.10
4584;DHT22;2304;47.606;12.186;2023-07-31T13:47:08;29.40;46.20
4584;DHT22;2304;47.606;12.186;2023-07-31T13:52:10;29.40;46.40
4584;DHT22;2304;47.606;12.186;2023-07-31T13:57:12;29.40;46.40
4584;DHT22;2304;47.606;12.186;2023-07-31T14:02:15;29.40;44.90
4584;DHT22;2304;47.606;12.186;2023-07-31T14:07:17;29.50;45.80
4584;DHT22;2304;47.606;12.186;2023-07-31T14:12:19;29.40;46.30
4584;DHT22;2304;47.606;12.186;2023-07-31T14:17:22;29.10;45.40
4584;DHT22;2304;47.606;12.186;2023-07-31T14:22:28;28.60;46.20
4584;DHT22;2304;47.606;12.186;2023-07-31T14:27:30;28.10;46.40
4584;DHT22;2304;47.606;12.186;2023-07-31T14:32:33;27.90;47.40
4584;DHT22;2304;47.606;12.186;2023-07-31T14:37:38;27.60;47.20
4584;DHT22;2304;47.606;12.186;2023-07-31T14:42:40;27.40;49.00
4584;DHT22;2304;47.606;12.186;2023-07-31T14:47:43;27.30;47.90
4584;DHT22;2304;47.606;12.186;2023-07-31T14:52:45;27.20;48.50
4584;DHT22;2304;47.606;12.186;2023-07-31T14:57:47;27.20;48.00
4584;DHT22;2304;47.606;12.186;2023-07-31T15:02:50;27.10;48.80
4584;DHT22;2304;47.606;12.186;2023-07-31T15:07:52;27.00;48.40
4584;DHT22;2304;47.606;12.186;2023-07-31T15:12:54;27.00;47.90
4584;DHT22;2304;47.606;12.186;2023-07-31T15:17:57;26.90;47.40
4584;DHT22;2304;47.606;12.186;2023-07-31T15:22:59;26.80;48.20
4584;DHT22;2304;47.606;12.186;2023-07-31T15:28:01;27.20;47.90
4584;DHT22;2304;47.606;12.186;2023-07-31T15:33:04;27.60;48.20
4584;DHT22;2304;47.606;12.186;2023-07-31T15:38:06;27.80;45.40
4584;DHT22;2304;47.606;12.186;2023-07-31T15:43:08;27.60;44.40
4584;DHT22;2304;47.606;12.186;2023-07-31T15:48:11;27.30;45.10
4584;DHT22;2304;47.606;12.186;2023-07-31T15:53:13;27.10;45.90
4584;DHT22;2304;47.606;12.186;2023-07-31T15:58:15;27.00;47.20
4584;DHT22;2304;47.606;12.186;2023-07-31T16:03:18;26.80;46.60
4584;DHT22;2304;47.606;12.186;2023-07-31T16:08:21;26.80;47.90
4584;DHT22;2304;47.606;12.186;2023-07-31T16:13:23;26.70;47.00
4584;DHT22;2304;47.606;12.186;2023-07-31T16:18:27;26.60;48.40
4584;DHT22;2304;47.606;12.186;2023-07-31T16:23:28;26.70;48.70
4584;DHT22;2304;47.606;12.186;2023-07-31T16:28:30;26.70;47.40
4584;DHT22;2304;47.606;12.186;2023-07-31T16:33:33;26.60;46.20
4584;DHT22;2304;47.606;12.186;2023-07-31T16:38:35;26.50;46.80
4584;DHT22;2304;47.606;12.186;2023-07-31T16:43:37;26.40;47.40
4584;DHT22;2304;47.606;12.186;2023-07-31T16:48:40;26.30;46.30
4584;DHT22;2304;47.606;12.186;2023-07-31T16:53:42;26.30;47.50
4584;DHT22;2304;47.606;12.186;2023-07-31T16:58:44;26.20;47.20
4584;DHT22;2304;47.606;12.186;2023-07-31T17:03:47;26.10;46.10
4584;DHT22;2304;47.606;12.186;2023-07-31T17:08:49;26.00;45.80
4584;DHT22;2304;47.606;12.186;2023-07-31T17:13:51;25.90;45.90
4584;DHT22;2304;47.606;12.186;2023-07-31T17:18:54;25.80;46.00
4584;DHT22;2304;47.606;12.186;2023-07-31T17:23:56;25.70;45.90
4584;DHT22;2304;47.606;12.186;2023-07-31T17:28:58;25.60;46.60
4584;DHT22;2304;47.606;12.186;2023-07-31T17:34:01;25.60;47.70
4584;DHT22;2304;47.606;12.186;2023-07-31T17:39:04;25.50;49.70
4584;DHT22;2304;47.606;12.186;2023-07-31T17:44:06;25.40;50.10
4584;DHT22;2304;47.606;12.186;2023-07-31T17:49:09;25.40;51.50
4584;DHT22;2304;47.606;12.186;2023-07-31T17:54:11;25.30;50.70
4584;DHT22;2304;47.606;12.186;2023-07-31T17:59:14;25.30;50.60
4584;DHT22;2304;47.606;12.186;2023-07-31T18:04:17;25.20;51.20
4584;DHT22;2304;47.606;12.186;2023-07-31T18:09:19;25.10;51.70
4584;DHT22;2304;47.606;12.186;2023-07-31T18:14:20;25.10;52.60
4584;DHT22;2304;47.606;12.186;2023-07-31T18:19:26;24.90;53.30
4584;DHT22;2304;47.606;12.186;2023-07-31T18:24:28;24.90;53.60
4584;DHT22;2304;47.606;12.186;2023-07-31T18:29:30;24.80;53.80
4584;DHT22;2304;47.606;12.186;2023-07-31T18:34:34;24.70;53.90
4584;DHT22;2304;47.606;12.186;2023-07-31T18:39:35;24.60;53.80
4584;DHT22;2304;47.606;12.186;2023-07-31T18:44:37;24.50;54.00
4584;DHT22;2304;47.606;12.186;2023-07-31T18:49:41;24.50;54.40
4584;DHT22;2304;47.606;12.186;2023-07-31T18:54:43;24.40;55.30
4584;DHT22;2304;47.606;12.186;2023-07-31T18:59:45;24.10;56.10
4584;DHT22;2304;47.606;12.186;2023-07-31T19:04:48;24.00;56.50
4584;DHT22;2304;47.606;12.186;2023-07-31T19:09:50;23.90;57.40
4584;DHT22;2304;47.606;12.186;2023-07-31T19:14:51;23.70;57.90
4584;DHT22;2304;47.606;12.186;2023-07-31T19:19:55;23.60;58.10
4584;DHT22;2304;47.606;12.186;2023-07-31T19:24:57;23.70;57.70
4584;DHT22;2304;47.606;12.186;2023-07-31T19:29:59;23.60;57.50
4584;DHT22;2304;47.606;12.186;2023-07-31T19:35:02;23.60;58.00
4584;DHT22;2304;47.606;12.186;2023-07-31T19:40:05;23.60;57.80
4584;DHT22;2304;47.606;12.186;2023-07-31T19:45:08;23.50;58.90
4584;DHT22;2304;47.606;12.186;2023-07-31T19:50:11;23.30;60.00
4584;DHT22;2304;47.606;12.186;2023-07-31T19:55:13;23.20;60.00
4584;DHT22;2304;47.606;12.186;2023-07-31T20:00:16;23.20;59.90
4584;DHT22;2304;47.606;12.186;2023-07-31T20:05:19;23.00;59.60
4584;DHT22;2304;47.606;12.186;2023-07-31T20:10:21;23.00;59.40
4584;DHT22;2304;47.606;12.186;2023-07-31T20:15:23;22.90;60.00
4584;DHT22;2304;47.606;12.186;2023-07-31T20:20:26;22.70;60.80
4584;DHT22;2304;47.606;12.186;2023-07-31T20:25:29;22.70;61.00
4584;DHT22;2304;47.606;12.186;2023-07-31T20:30:33;22.70;61.10
4584;DHT22;2304;47.606;12.186;2023-07-31T20:35:36;22.60;61.10
4584;DHT22;2304;47.606;12.186;2023-07-31T20:40:38;22.60;61.50
4584;DHT22;2304;47.606;12.186;2023-07-31T20:45:40;22.50;62.00
4584;DHT22;2304;47.606;12.186;2023-07-31T20:50:43;22.30;60.90
4584;DHT22;2304;47.606;12.186;2023-07-31T20:55:47;22.30;61.20
4584;DHT22;2304;47.606;12.186;2023-07-31T21:00:48;22.30;61.70
4584;DHT22;2304;47.606;12.186;2023-07-31T21:05:52;22.30;62.10
4584;DHT22;2304;47.606;12.186;2023-07-31T21:10:54;22.30;62.20
4584;DHT22;2304;47.606;12.186;2023-07-31T21:15:57;22.20;62.50
4584;DHT22;2304;47.606;12.186;2023-07-31T21:21:01;22.20;62.10
4584;DHT22;2304;47.606;12.186;2023-07-31T21:26:03;22.10;62.50
4584;DHT22;2304;47.606;12.186;2023-07-31T21:31:11;22.10;62.40
4584;DHT22;2304;47.606;12.186;2023-07-31T21:36:14;22.10;62.60
4584;DHT22;2304;47.606;12.186;2023-07-31T21:41:16;21.90;62.90
4584;DHT22;2304;47.606;12.186;2023-07-31T21:46:18;21.90;63.00
4584;DHT22;2304;47.606;12.186;2023-07-31T21:51:21;21.90;63.10
4584;DHT22;2304;47.606;12.186;2023-07-31T21:56:23;21.90;63.40
4584;DHT22;2304;47.606;12.186;2023-07-31T22:01:25;21.80;64.90
4584;DHT22;2304;47.606;12.186;2023-07-31T22:06:28;21.60;64.90
4584;DHT22;2304;47.606;12.186;2023-07-31T22:11:30;21.60;65.60
4584;DHT22;2304;47.606;12.186;2023-07-31T22:16:32;21.60;65.50
4584;DHT22;2304;47.606;12.186;2023-07-31T22:21:36;21.60;66.80
4584;DHT22;2304;47.606;12.186;2023-07-31T22:26:38;21.50;66.40
4584;DHT22;2304;47.606;12.186;2023-07-31T22:31:40;21.50;67.00
4584;DHT22;2304;47.606;12.186;2023-07-31T22:36:44;21.50;66.90
4584;DHT22;2304;47.606;12.186;2023-07-31T22:41:46;21.50;67.60
4584;DHT22;2304;47.606;12.186;2023-07-31T22:46:48;21.30;68.30
4584;DHT22;2304;47.606;12.186;2023-07-31T22:51:51;21.30;68.30
4584;DHT22;2304;47.606;12.186;2023-07-31T22:56:53;21.20;68.20
4584;DHT22;2304;47.606;12.186;2023-07-31T23:01:55;21.30;68.10
4584;DHT22;2304;47.606;12.186;2023-07-31T23:06:59;21.30;67.60
4584;DHT22;2304;47.606;12.186;2023-07-31T23:12:00;21.30;67.70
4584;DHT22;2304;47.606;12.186;2023-07-31T23:17:03;21.20;67.90
4584;DHT22;2304;47.606;12.186;2023-07-31T23:22:06;21.20;67.70
4584;DHT22;2304;47.606;12.186;2023-07-31T23:27:08;21.20;67.60
4584;DHT22;2304;47.606;12.186;2023-07-31T23:32:10;21.10;67.90
4584;DHT22;2304;47.606;12.186;2023-07-31T23:37:17;21.10;67.80
4584;DHT22;2304;47.606;12.186;2023-07-31T23:42:19;21.10;67.60
4584;DHT22;2304;47.606;12.186;2023-07-31T23:47:21;21.00;67.40
